aviador You're here:

KFLD Decoded Metar

FOND DU LAC in WI, USA
Report Time2017-10-21 14:53:00
UTC Time2017-10-21 15:44:47
Flight Rules vfr VFR
Wind180° at 16 Gusting to 24 kt
W.Decomp.*RWY 18: 16.0 kt HW 1.1 kt RCW
RWY 27: 1.1 kt HW 16 kt LCW
W.Rank180° ranks 5
Current wind is above 180° avg. (7.7)
Visibility9999 m
Phenomena:N/A
Clouds:N/A
Expected CloudBase > 4,000 ft AGL from Temp-Dew spread
CeilingNone
Temp19°C (ISA +6)
Dew Point09°C (52% RH)
AAT13.0°C
QNH1015 hPa
Density Alt1,529 ft
Elevation787 ft
Report Wrong Elevation
Raw Report
METAR KFLD 211453Z AUTO 18016G24KT 10SM CLR 19/09 A2996 RMK AO2 SLP144
T01890089 51003=

Extra information for KFLD:More info

Metar Taf Metar & Taf Last 4 Metars F.Rules Stats Wind Profile Meteogram Temp Stats Airport Information Weather charts Add Link Nearby VenuesMetar ALERT Operation Metar Decoded Social comments

AIRNAV info for KFLD